createdAt,value
2022-08-22T00:01:17.628Z,1.80
2022-08-22T00:03:10.386Z,1.23
2022-08-22T00:04:26.268Z,1.65
2022-08-22T00:07:27.488Z,1.63
2022-08-22T00:10:43.190Z,1.60
2022-08-22T00:14:01.434Z,1.77
2022-08-22T00:17:03.346Z,1.90
2022-08-22T00:20:05.746Z,1.75
2022-08-22T00:23:12.201Z,1.50
2022-08-22T00:26:22.024Z,1.80
2022-08-22T00:29:21.787Z,1.73
2022-08-22T00:32:32.870Z,1.60
2022-08-22T00:35:45.014Z,1.75
2022-08-22T00:38:40.789Z,1.60
2022-08-22T00:41:57.441Z,1.58
2022-08-22T00:45:21.848Z,1.42
2022-08-22T00:48:28.121Z,1.50
2022-08-22T00:51:31.594Z,1.70
2022-08-22T00:54:32.264Z,1.70
2022-08-22T00:57:48.521Z,1.85
2022-08-22T01:00:43.578Z,1.83
2022-08-22T01:03:46.681Z,1.90
2022-08-22T01:06:51.468Z,1.85
2022-08-22T01:09:47.211Z,2.00
2022-08-22T01:13:04.839Z,1.70
2022-08-22T01:16:11.492Z,1.50
2022-08-22T01:19:28.344Z,1.70
2022-08-22T01:22:40.168Z,1.70
2022-08-22T01:25:57.818Z,1.40
2022-08-22T01:29:27.665Z,1.40
2022-08-22T01:32:47.725Z,1.40
2022-08-22T01:35:40.666Z,1.40
2022-08-22T01:38:45.447Z,1.40
2022-08-22T01:41:50.354Z,1.30
2022-08-22T01:44:59.365Z,1.30
2022-08-22T01:53:44.115Z,1.48
2022-08-22T01:56:40.055Z,1.52
2022-08-22T01:59:42.565Z,1.40
2022-08-22T02:03:00.734Z,1.40
2022-08-22T02:05:53.424Z,1.35
2022-08-22T02:09:03.939Z,1.60
2022-08-22T02:12:00.256Z,1.60
2022-08-22T02:14:58.478Z,1.70
2022-08-22T02:18:06.542Z,1.70
2022-08-22T02:21:12.064Z,1.70
2022-08-22T02:24:05.390Z,1.83
2022-08-22T02:27:23.632Z,1.70
2022-08-22T02:30:18.630Z,1.70
2022-08-22T02:33:13.155Z,1.90
2022-08-22T02:36:06.182Z,2.13
2022-08-22T02:39:08.445Z,2.20
2022-08-22T02:42:02.451Z,1.90
2022-08-22T02:45:12.004Z,1.80
2022-08-22T02:48:11.762Z,1.70
2022-08-22T02:51:21.273Z,1.90
2022-08-22T02:54:26.888Z,1.75
2022-08-22T02:57:30.021Z,1.60
2022-08-22T03:00:31.891Z,1.70
2022-08-22T03:03:28.837Z,1.50
2022-08-22T03:06:43.858Z,1.40
2022-08-22T03:09:35.706Z,1.98
2022-08-22T03:12:32.921Z,1.80
2022-08-22T03:15:48.491Z,1.70
2022-08-22T03:19:08.438Z,1.80
2022-08-22T03:22:07.657Z,1.70
2022-08-22T03:25:18.530Z,1.80
2022-08-22T03:28:59.524Z,1.90
2022-08-22T03:32:13.201Z,2.00
2022-08-22T03:35:03.729Z,1.60
2022-08-22T03:37:56.578Z,1.98
2022-08-22T03:41:17.668Z,1.80
2022-08-22T03:44:38.538Z,1.77
2022-08-22T03:47:34.442Z,1.80
2022-08-22T03:50:50.939Z,1.90
2022-08-22T03:53:47.167Z,1.70
2022-08-22T03:56:54.049Z,1.80
2022-08-22T03:59:53.136Z,1.50
2022-08-22T04:02:58.555Z,1.77
2022-08-22T04:06:02.653Z,1.80
2022-08-22T04:08:55.475Z,1.50
2022-08-22T04:12:33.454Z,1.38
2022-08-22T04:15:54.136Z,1.60
2022-08-22T04:19:22.587Z,1.52
2022-08-22T04:22:09.311Z,1.50
2022-08-22T04:25:08.456Z,1.38
2022-08-22T04:28:06.111Z,1.38
2022-08-22T04:31:14.831Z,1.43
2022-08-22T04:34:11.811Z,1.77
2022-08-22T04:37:08.943Z,1.60
2022-08-22T04:39:59.805Z,1.80
2022-08-22T04:43:25.303Z,1.60
2022-08-22T04:46:41.235Z,1.80
2022-08-22T04:50:13.130Z,1.67
2022-08-22T04:53:23.145Z,2.03
2022-08-22T04:56:47.430Z,1.80
2022-08-22T04:59:35.767Z,1.83
2022-08-22T05:02:29.533Z,1.63
2022-08-22T05:05:26.850Z,1.75
2022-08-22T05:08:21.528Z,1.75
2022-08-22T05:11:10.774Z,1.90
2022-08-22T05:14:04.110Z,1.90
2022-08-22T05:16:54.306Z,1.98
2022-08-22T05:19:44.364Z,1.70
2022-08-22T05:22:36.647Z,1.70
2022-08-22T05:25:30.110Z,1.75
2022-08-22T05:28:29.928Z,1.77
2022-08-22T05:31:27.078Z,1.85
2022-08-22T05:34:20.187Z,1.63
2022-08-22T05:37:24.786Z,1.73
2022-08-22T05:40:27.712Z,1.95
2022-08-22T05:43:14.530Z,1.80
2022-08-22T05:46:02.830Z,1.65
2022-08-22T05:49:02.363Z,1.75
2022-08-22T05:52:20.625Z,1.77
2022-08-22T05:55:50.719Z,1.80
2022-08-22T05:58:43.369Z,1.70
2022-08-22T06:01:46.816Z,1.60
2022-08-22T06:04:54.704Z,2.00
2022-08-22T06:07:46.423Z,1.80
2022-08-22T06:10:48.264Z,1.90
2022-08-22T06:13:41.448Z,2.00
2022-08-22T06:16:47.693Z,1.90
2022-08-22T06:19:40.248Z,1.85
2022-08-22T06:22:32.555Z,1.80
2022-08-22T06:25:27.311Z,1.55
2022-08-22T06:28:20.873Z,1.40
2022-08-22T06:31:17.145Z,1.60
2022-08-22T06:34:13.370Z,1.50
2022-08-22T06:37:05.143Z,1.70
2022-08-22T06:39:54.243Z,1.80
2022-08-22T06:42:47.024Z,1.30
2022-08-22T06:45:34.930Z,1.30
2022-08-22T06:51:12.824Z,1.17
2022-08-22T06:54:05.253Z,1.40
2022-08-22T06:56:55.274Z,1.33
2022-08-22T06:59:43.891Z,1.40
2022-08-22T07:02:38.249Z,1.77
2022-08-22T07:05:33.984Z,1.70
2022-08-22T07:08:22.626Z,2.00
2022-08-22T07:11:13.438Z,1.90
2022-08-22T07:14:08.437Z,2.50
2022-08-22T07:17:02.000Z,2.33
2022-08-22T07:20:18.715Z,2.17
2022-08-22T07:23:40.523Z,2.20
2022-08-22T07:27:22.627Z,1.90
2022-08-22T07:30:15.815Z,2.10
2022-08-22T07:33:46.424Z,2.20
2022-08-22T07:36:48.970Z,2.90
2022-08-22T07:39:45.163Z,3.47
2022-08-22T07:42:42.581Z,3.40
2022-08-22T07:45:55.662Z,3.53
2022-08-22T07:49:08.773Z,3.10
2022-08-22T07:52:08.802Z,3.40
2022-08-22T07:55:08.694Z,3.38
2022-08-22T07:58:04.020Z,3.22
2022-08-22T08:00:52.644Z,3.42
2022-08-22T08:03:40.383Z,3.17
2022-08-22T08:06:29.017Z,2.95
2022-08-22T08:12:05.914Z,2.90
2022-08-22T08:14:54.925Z,2.97
2022-08-22T08:17:43.250Z,2.83
2022-08-22T08:20:30.665Z,2.63
2022-08-22T08:23:23.753Z,2.80
2022-08-22T08:26:19.060Z,2.95
2022-08-22T08:29:07.204Z,2.65
2022-08-22T08:31:54.831Z,2.55
2022-08-22T08:34:44.120Z,2.50
2022-08-22T08:37:47.408Z,2.60
2022-08-22T08:40:34.144Z,2.50
2022-08-22T08:43:34.967Z,2.70
2022-08-22T08:46:55.298Z,3.00
2022-08-22T08:50:01.902Z,2.75
2022-08-22T08:53:12.086Z,3.00
2022-08-22T08:56:47.113Z,3.30
2022-08-22T09:00:02.109Z,3.00
2022-08-22T09:03:35.373Z,2.30
2022-08-22T09:07:00.994Z,2.63
2022-08-22T09:09:52.525Z,2.83
2022-08-22T09:13:16.945Z,2.83
2022-08-22T09:16:18.754Z,2.65
2022-08-22T09:19:06.528Z,2.88
2022-08-22T09:24:49.092Z,3.13
2022-08-22T09:27:43.952Z,2.60
2022-08-22T09:30:53.997Z,2.60
2022-08-22T09:33:56.102Z,2.70
2022-08-22T09:37:06.447Z,2.55
2022-08-22T09:39:57.326Z,2.70
2022-08-22T09:42:59.448Z,2.60
2022-08-22T09:46:22.446Z,2.55
2022-08-22T09:49:41.150Z,2.13
2022-08-22T09:52:43.286Z,2.00
2022-08-22T09:56:11.652Z,2.55
2022-08-22T09:59:19.519Z,2.20
2022-08-22T10:02:15.505Z,2.50
2022-08-22T10:05:35.281Z,2.65
2022-08-22T10:08:55.546Z,2.80
2022-08-22T10:11:46.622Z,2.83
2022-08-22T10:14:50.549Z,2.47
2022-08-22T10:18:05.333Z,2.40
2022-08-22T10:20:58.251Z,2.35
2022-08-22T10:24:01.330Z,2.60
2022-08-22T10:26:58.024Z,2.40
2022-08-22T10:30:03.666Z,2.63
2022-08-22T10:33:00.760Z,2.40
2022-08-22T10:35:50.428Z,2.40
2022-08-22T10:38:48.817Z,2.60
2022-08-22T10:41:55.860Z,2.40
2022-08-22T10:45:11.469Z,2.53
2022-08-22T10:47:58.581Z,2.70
2022-08-22T10:50:50.059Z,2.30
2022-08-22T10:54:08.716Z,2.80
2022-08-22T10:57:03.554Z,2.60
2022-08-22T11:00:13.977Z,2.30
2022-08-22T11:03:36.034Z,2.30
2022-08-22T11:06:31.108Z,2.10
2022-08-22T11:09:28.263Z,2.40
2022-08-22T11:12:20.855Z,2.00
2022-08-22T11:15:27.294Z,2.40
2022-08-22T11:18:28.031Z,2.38
2022-08-22T11:21:45.958Z,2.50
2022-08-22T11:25:04.675Z,2.03
2022-08-22T11:28:13.213Z,2.20
2022-08-22T11:31:51.370Z,2.20
2022-08-22T11:34:45.100Z,2.40
2022-08-22T11:38:00.004Z,1.92
2022-08-22T11:40:55.744Z,1.88
2022-08-22T11:44:05.579Z,1.38
2022-08-22T11:46:57.203Z,1.80
2022-08-22T11:50:13.424Z,1.63
2022-08-22T11:53:13.341Z,1.60
2022-08-22T11:56:13.496Z,1.58
2022-08-22T11:59:26.491Z,1.52
2022-08-22T12:02:28.569Z,1.38
2022-08-22T12:05:27.258Z,1.23
2022-08-22T12:08:37.046Z,1.00
2022-08-22T12:11:58.551Z,1.50
2022-08-22T12:15:11.003Z,1.10
2022-08-22T12:18:20.029Z,1.00
2022-08-22T12:21:39.091Z,1.10
2022-08-22T12:24:50.602Z,1.00
2022-08-22T12:28:10.236Z,1.00
2022-08-22T12:31:13.439Z,0.93
2022-08-22T12:34:12.189Z,0.80
2022-08-22T12:37:19.150Z,1.02
2022-08-22T12:40:36.401Z,0.93
2022-08-22T12:43:32.387Z,0.90
2022-08-22T12:46:55.555Z,1.02
2022-08-22T12:50:12.305Z,1.20
2022-08-22T12:53:07.069Z,1.30
2022-08-22T12:55:55.541Z,1.10
2022-08-22T12:58:57.302Z,1.63
2022-08-22T13:01:46.992Z,1.90
2022-08-22T13:04:35.577Z,1.70
2022-08-22T13:07:30.481Z,2.08
2022-08-22T13:10:42.209Z,2.05
2022-08-22T13:13:43.308Z,2.10
2022-08-22T13:16:51.194Z,2.10
2022-08-22T13:19:51.814Z,2.22
2022-08-22T13:22:45.709Z,2.13
2022-08-22T13:25:56.252Z,2.47
2022-08-22T13:29:22.067Z,2.08
2022-08-22T13:32:04.909Z,1.63
2022-08-22T13:34:55.072Z,1.63
2022-08-22T13:37:45.782Z,1.50
2022-08-22T13:40:38.558Z,2.50
2022-08-22T13:43:54.108Z,2.00
2022-08-22T13:47:10.881Z,2.10
2022-08-22T13:49:54.377Z,1.90
2022-08-22T13:53:04.956Z,2.00
2022-08-22T13:56:07.148Z,1.77
2022-08-22T13:59:07.273Z,2.10
2022-08-22T14:02:18.448Z,1.95
2022-08-22T14:05:30.550Z,1.67
2022-08-22T14:08:18.362Z,2.10
2022-08-22T14:11:14.999Z,2.40
2022-08-22T14:14:05.130Z,2.10
2022-08-22T14:16:58.128Z,1.75
2022-08-22T14:19:58.972Z,1.70
2022-08-22T14:23:04.948Z,1.50
2022-08-22T14:25:52.084Z,1.20
2022-08-22T14:28:39.318Z,1.10
2022-08-22T14:31:28.543Z,1.00
2022-08-22T14:34:16.396Z,0.90
2022-08-22T14:37:21.307Z,0.73
2022-08-22T14:40:24.987Z,0.70
2022-08-22T14:43:25.036Z,0.82
2022-08-22T14:46:21.560Z,0.70
2022-08-22T14:49:47.201Z,0.75
2022-08-22T14:52:42.506Z,0.98
2022-08-22T14:55:30.588Z,0.85
2022-08-22T14:58:26.380Z,0.75
2022-08-22T15:01:22.136Z,0.90
2022-08-22T15:04:18.848Z,0.80
2022-08-22T15:07:07.442Z,0.73
2022-08-22T15:10:01.182Z,0.90
2022-08-22T15:12:53.939Z,0.80
2022-08-22T15:15:53.280Z,0.77
2022-08-22T15:18:51.474Z,0.85
2022-08-22T15:21:41.314Z,1.57
2022-08-22T15:24:29.201Z,1.45
2022-08-22T15:30:20.370Z,1.30
2022-08-22T15:33:14.140Z,1.10
2022-08-22T15:36:24.484Z,1.10
2022-08-22T15:39:30.892Z,1.00
2022-08-22T15:42:26.050Z,1.05
2022-08-22T15:45:33.896Z,0.90
2022-08-22T15:48:33.513Z,1.10
2022-08-22T15:51:33.062Z,1.00
2022-08-22T15:54:38.257Z,1.30
2022-08-22T15:57:40.039Z,1.42
2022-08-22T16:00:29.669Z,1.15
2022-08-22T16:03:31.150Z,1.67
2022-08-22T16:06:49.067Z,1.50
2022-08-22T16:09:45.485Z,2.03
2022-08-22T16:12:38.272Z,2.70
2022-08-22T16:15:46.714Z,2.40
2022-08-22T16:18:33.473Z,2.50
2022-08-22T16:21:23.253Z,2.53
2022-08-22T16:24:09.958Z,2.60
2022-08-22T16:26:57.223Z,2.70
2022-08-22T16:29:45.135Z,2.40
2022-08-22T16:32:34.651Z,2.40
2022-08-22T16:36:06.108Z,2.00
2022-08-22T16:38:57.579Z,2.00
2022-08-22T16:41:44.502Z,2.70
2022-08-22T16:44:31.243Z,2.60
2022-08-22T16:47:19.595Z,2.67
2022-08-22T16:50:30.711Z,2.50
2022-08-22T16:53:29.597Z,2.50
2022-08-22T16:56:40.298Z,2.70
2022-08-22T16:59:48.796Z,2.70
2022-08-22T17:03:06.104Z,2.65
2022-08-22T17:06:23.937Z,2.80
2022-08-22T17:09:35.407Z,2.67
2022-08-22T17:12:34.050Z,2.72
2022-08-22T17:15:45.342Z,3.05
2022-08-22T17:18:47.414Z,2.50
2022-08-22T17:21:51.721Z,2.30
2022-08-22T17:24:51.333Z,2.20
2022-08-22T17:27:44.899Z,1.88
2022-08-22T17:30:41.202Z,1.88
2022-08-22T17:33:33.989Z,1.90
2022-08-22T17:36:42.964Z,1.50
2022-08-22T17:40:01.694Z,1.50
2022-08-22T17:43:13.022Z,1.60
2022-08-22T17:46:14.583Z,1.58
2022-08-22T17:49:09.367Z,1.48
2022-08-22T17:52:18.751Z,1.50
2022-08-22T17:55:32.466Z,1.88
2022-08-22T17:58:33.579Z,1.63
2022-08-22T18:01:56.082Z,1.83
2022-08-22T18:04:59.157Z,1.70
2022-08-22T18:08:04.481Z,1.50
2022-08-22T18:14:47.678Z,1.70
2022-08-22T18:17:41.514Z,1.70
2022-08-22T18:20:37.693Z,1.90
2022-08-22T18:23:39.005Z,1.90
2022-08-22T18:26:42.551Z,1.98
2022-08-22T18:29:45.243Z,1.90
2022-08-22T18:32:47.627Z,1.90
2022-08-22T18:35:55.278Z,2.00
2022-08-22T18:38:57.492Z,2.10
2022-08-22T18:42:15.034Z,1.75
2022-08-22T18:45:02.026Z,2.05
2022-08-22T18:47:56.530Z,1.75
2022-08-22T18:50:43.326Z,2.10
2022-08-22T18:53:36.395Z,2.00
2022-08-22T18:56:45.173Z,1.90
2022-08-22T19:02:55.576Z,2.00
2022-08-22T19:06:12.286Z,2.30
2022-08-22T19:09:19.079Z,2.10
2022-08-22T19:12:26.610Z,2.00
2022-08-22T19:15:29.805Z,2.00
2022-08-22T19:18:30.157Z,1.85
2022-08-22T19:21:44.842Z,2.20
2022-08-22T19:24:56.829Z,2.05
2022-08-22T19:28:05.634Z,2.33
2022-08-22T19:34:12.153Z,2.17
2022-08-22T19:37:32.928Z,1.95
2022-08-22T19:40:45.795Z,2.40
2022-08-22T19:43:37.042Z,2.10
2022-08-22T19:46:36.557Z,2.10
2022-08-22T19:49:39.457Z,2.38
2022-08-22T19:52:26.133Z,2.10
2022-08-22T19:56:02.635Z,2.03
2022-08-22T19:59:04.290Z,2.20
2022-08-22T20:01:56.620Z,2.17
2022-08-22T20:05:04.731Z,2.20
2022-08-22T20:08:28.844Z,2.30
2022-08-22T20:11:42.756Z,2.13
2022-08-22T20:14:31.371Z,2.10
2022-08-22T20:17:27.019Z,2.10
2022-08-22T20:20:19.728Z,2.03
2022-08-22T20:23:28.253Z,2.40
2022-08-22T20:26:15.803Z,2.30
2022-08-22T20:29:08.213Z,2.20
2022-08-22T20:31:58.763Z,2.28
2022-08-22T20:34:47.833Z,2.28
2022-08-22T20:38:05.436Z,2.28
2022-08-22T20:40:57.647Z,2.20
2022-08-22T20:44:01.672Z,2.45
2022-08-22T20:46:55.854Z,2.10
2022-08-22T20:49:48.420Z,2.10
2022-08-22T20:52:38.018Z,2.10
2022-08-22T20:55:31.843Z,2.40
2022-08-22T20:58:25.006Z,2.25
2022-08-22T21:01:14.891Z,2.30
2022-08-22T21:04:04.146Z,2.25
2022-08-22T21:07:00.200Z,2.30
2022-08-22T21:10:15.896Z,2.30
2022-08-22T21:13:06.942Z,2.45
2022-08-22T21:16:15.987Z,2.28
2022-08-22T21:19:03.103Z,2.45
2022-08-22T21:21:50.051Z,2.28
2022-08-22T21:24:36.827Z,2.20
2022-08-22T21:27:30.036Z,2.00
2022-08-22T21:30:24.125Z,2.05
2022-08-22T21:33:15.590Z,1.95
2022-08-22T21:36:13.964Z,2.10
2022-08-22T21:39:12.563Z,2.00
2022-08-22T21:41:59.294Z,2.55
2022-08-22T21:45:00.091Z,2.80
2022-08-22T21:47:46.916Z,2.50
2022-08-22T21:50:38.102Z,2.97
2022-08-22T21:53:27.815Z,2.92
2022-08-22T21:56:17.115Z,2.60
2022-08-22T21:59:50.968Z,3.05
2022-08-22T22:02:37.835Z,3.00
2022-08-22T22:05:26.571Z,2.90
2022-08-22T22:08:13.404Z,2.70
2022-08-22T22:11:04.699Z,3.07
2022-08-22T22:13:53.568Z,2.83
2022-08-22T22:16:40.404Z,3.08
2022-08-22T22:19:27.194Z,3.13
2022-08-22T22:22:14.126Z,2.92
2022-08-22T22:25:00.908Z,3.10
2022-08-22T22:27:48.783Z,2.92
2022-08-22T22:33:29.609Z,2.85
2022-08-22T22:36:21.150Z,2.88
2022-08-22T22:39:09.899Z,3.08
2022-08-22T22:41:56.670Z,3.25
2022-08-22T22:44:43.949Z,2.75
2022-08-22T22:47:35.332Z,3.00
2022-08-22T22:50:22.143Z,3.35
2022-08-22T22:53:09.471Z,3.25
2022-08-22T22:55:59.988Z,3.08
2022-08-22T22:58:47.658Z,3.03
2022-08-22T23:01:34.857Z,3.15
2022-08-22T23:04:21.611Z,3.20
2022-08-22T23:07:09.287Z,3.13
2022-08-22T23:09:56.545Z,3.13
2022-08-22T23:12:46.217Z,3.03
2022-08-22T23:15:33.084Z,3.40
2022-08-22T23:18:20.897Z,2.90
2022-08-22T23:21:20.550Z,2.90
2022-08-22T23:24:08.447Z,3.10
2022-08-22T23:29:42.360Z,3.20
2022-08-22T23:32:29.115Z,3.20
2022-08-22T23:35:15.899Z,3.20
2022-08-22T23:38:02.615Z,3.05
2022-08-22T23:40:49.392Z,3.03
2022-08-22T23:43:36.335Z,3.00
2022-08-22T23:46:26.065Z,3.23
2022-08-22T23:49:14.297Z,2.95
2022-08-22T23:52:01.498Z,2.95
2022-08-22T23:54:48.264Z,3.00
2022-08-22T23:57:42.184Z,2.60
